Time;durP1;ratioP1;P1;durP2;ratioP2;P2;SDS_P1;SDS_P2;PMS_P1;PMS_P2;Temp;Humidity;BMP_temperature;BMP_pressure;BME280_temperature;BME280_humidity;BME280_pressure;Samples;Min_cycle;Max_cycle;Signal;HPM_P1;HPM_P2
2023/06/03 00:19:27;;;;;;;;;;;;;;;22.80;41.32;100231.47;39939654;29;19937;-79
2023/06/03 00:39:27;;;;;;;;;;;;;;;22.63;40.34;100237.34;39972271;29;19928;-78
2023/06/03 00:59:27;;;;;;;;;;;;;;;22.47;40.42;100243.09;39964118;29;20016;-76
2023/06/03 01:19:38;;;;;;;;;;;;;;;22.43;39.83;100234.63;39949422;29;19935;-79
2023/06/03 01:39:42;;;;;;;;;;;;;;;22.30;39.24;100237.44;39962783;29;19925;-78
2023/06/03 01:59:42;;;;;;;;;;;;;;;21.99;39.56;100257.63;39957431;29;19960;-79
2023/06/03 02:19:42;;;;;;;;;;;;;;;21.71;38.91;100288.88;39975181;29;20319;-77
2023/06/03 02:39:47;;;;;;;;;;;;;;;21.55;39.11;100294.53;39987901;29;19931;-75
2023/06/03 02:59:48;;;;;;;;;;;;;;;21.41;39.12;100337.78;39974768;29;19925;-78
2023/06/03 03:19:49;;;;;;;;;;;;;;;21.22;39.66;100368.19;39966308;29;19925;-79
2023/06/03 03:39:50;;;;;;;;;;;;;;;21.15;39.82;100387.22;39967195;29;19928;-78
2023/06/03 03:59:52;;;;;;;;;;;;;;;21.19;40.28;100402.69;39947468;29;19924;-78
2023/06/03 04:19:55;;;;;;;;;;;;;;;21.08;40.06;100426.34;39940734;29;19936;-77
2023/06/03 04:39:58;;;;;;;;;;;;;;;21.04;40.09;100438.91;39933220;29;20019;-80
2023/06/03 04:59:59;;;;;;;;;;;;;;;21.01;40.53;100444.41;39957042;29;19924;-78
2023/06/03 05:19:59;;;;;;;;;;;;;;;21.10;40.51;100458.66;39907728;29;20281;-78
2023/06/03 05:39:59;;;;;;;;;;;;;;;21.37;40.25;100461.00;39901398;29;19929;-76
2023/06/03 06:00:01;;;;;;;;;;;;;;;21.47;39.64;100482.22;39917590;29;19929;-77
2023/06/03 06:20:02;;;;;;;;;;;;;;;21.86;40.65;100502.94;39918215;29;19967;-78
2023/06/03 06:40:03;;;;;;;;;;;;;;;21.90;40.33;100514.94;39944953;29;19948;-77
2023/06/03 07:00:03;;;;;;;;;;;;;;;22.10;40.87;100516.00;39909904;29;19933;-81
2023/06/03 07:20:05;;;;;;;;;;;;;;;22.28;40.99;100520.78;39961515;29;20377;-81
2023/06/03 07:40:12;;;;;;;;;;;;;;;22.47;40.40;100543.91;39933683;29;19975;-77
2023/06/03 08:00:14;;;;;;;;;;;;;;;22.20;40.13;100551.25;39925033;29;19999;-78
2023/06/03 08:20:14;;;;;;;;;;;;;;;22.35;40.54;100550.97;39932690;29;19931;-85
2023/06/03 08:40:17;;;;;;;;;;;;;;;22.61;40.34;100564.75;39964988;29;19946;-85
2023/06/03 09:00:21;;;;;;;;;;;;;;;22.80;40.63;100566.75;39964226;29;19982;-85
2023/06/03 09:20:23;;;;;;;;;;;;;;;22.95;40.58;100563.78;39952089;29;19924;-82
2023/06/03 09:40:27;;;;;;;;;;;;;;;23.08;40.50;100560.97;39955937;29;19924;-84
2023/06/03 10:00:27;;;;;;;;;;;;;;;23.17;40.45;100555.81;39937983;29;19947;-84
2023/06/03 10:20:35;;;;;;;;;;;;;;;23.27;40.45;100550.59;39943751;29;19936;-83
2023/06/03 10:40:35;;;;;;;;;;;;;;;23.36;40.61;100550.78;39952965;29;20019;-78
2023/06/03 11:00:55;;;;;;;;;;;;;;;23.49;41.05;100546.13;39963026;29;19979;-79
2023/06/03 11:20:56;;;;;;;;;;;;;;;23.60;41.35;100537.28;39943680;29;19940;-84
2023/06/03 11:40:56;;;;;;;;;;;;;;;23.74;40.30;100539.59;39961159;29;19949;-83
2023/06/03 12:01:06;;;;;;;;;;;;;;;23.86;40.55;100516.53;39948203;29;19928;-76
2023/06/03 12:21:22;;;;;;;;;;;;;;;24.01;37.66;100513.56;39958705;29;19960;-83
2023/06/03 12:41:23;;;;;;;;;;;;;;;24.14;38.05;100479.75;39938277;29;19924;-85
2023/06/03 13:01:23;;;;;;;;;;;;;;;24.30;36.75;100476.56;39928350;29;20373;-84
2023/06/03 13:21:24;;;;;;;;;;;;;;;24.42;35.72;100464.06;39931656;29;19935;-84
2023/06/03 13:41:25;;;;;;;;;;;;;;;24.53;35.09;100466.56;39938932;29;19912;-81
2023/06/03 14:01:28;;;;;;;;;;;;;;;24.64;34.42;100444.41;39900369;29;19924;-78
2023/06/03 14:21:28;;;;;;;;;;;;;;;24.73;33.31;100434.81;39950079;29;19967;-80
2023/06/03 14:41:32;;;;;;;;;;;;;;;24.77;33.00;100425.63;39929182;29;20381;-74
2023/06/03 15:01:32;;;;;;;;;;;;;;;24.85;33.08;100417.81;39923872;29;20460;-74
2023/06/03 15:21:36;;;;;;;;;;;;;;;24.86;32.93;100410.69;39903795;29;19924;-74
2023/06/03 15:41:36;;;;;;;;;;;;;;;24.89;32.98;100400.66;39916925;29;19935;-85
2023/06/03 16:01:37;;;;;;;;;;;;;;;24.87;31.27;100392.00;39900653;29;20300;-80
2023/06/03 16:21:37;;;;;;;;;;;;;;;24.77;31.01;100402.63;39935424;29;19929;-79
2023/06/03 16:41:38;;;;;;;;;;;;;;;24.74;30.93;100412.66;39906186;29;19924;-77
2023/06/03 17:01:38;;;;;;;;;;;;;;;24.64;30.56;100431.16;39915950;29;19929;-82
2023/06/03 17:21:42;;;;;;;;;;;;;;;24.51;28.43;100430.63;39877978;29;19928;-77
2023/06/03 17:41:42;;;;;;;;;;;;;;;24.44;28.74;100459.47;39880359;29;19924;-75
2023/06/03 18:01:44;;;;;;;;;;;;;;;24.26;28.57;100473.38;39891176;29;19933;-72
2023/06/03 18:21:45;;;;;;;;;;;;;;;24.11;27.86;100503.84;39881768;29;19929;-73
2023/06/03 18:41:45;;;;;;;;;;;;;;;23.87;26.85;100518.19;39911468;29;19985;-72
2023/06/03 19:01:46;;;;;;;3.38;1.10;;;;;;;23.60;26.34;100537.28;39948225;29;19959;-71
2023/06/03 19:21:48;;;;;;;6.32;1.90;;;;;;;23.39;26.80;100543.44;39965859;29;20050;-72
2023/06/03 19:41:49;;;;;;;5.43;1.40;;;;;;;23.30;27.70;100560.06;39936620;29;20046;-73
2023/06/03 20:01:50;;;;;;;1.83;1.55;;;;;;;23.04;27.93;100570.97;39954352;29;20062;-75
2023/06/03 20:21:50;;;;;;;4.30;1.60;;;;;;;22.72;28.46;100585.00;39949720;29;20054;-77
2023/06/03 20:41:51;;;;;;;3.40;1.50;;;;;;;22.40;28.42;100598.97;39930018;29;20125;-77
2023/06/03 21:01:51;;;;;;;4.40;1.60;;;;;;;22.02;29.42;100622.09;39913126;29;20078;-76
2023/06/03 21:21:51;;;;;;;2.78;1.58;;;;;;;21.75;30.56;100639.06;39923429;29;20043;-76
2023/06/03 21:41:52;;;;;;;3.45;1.50;;;;;;;21.50;31.06;100637.41;39913699;29;20100;-77
2023/06/03 22:01:52;;;;;;;4.90;2.08;;;;;;;21.37;31.27;100644.53;39934014;29;20061;-75
2023/06/03 22:21:53;;;;;;;2.92;1.80;;;;;;;21.19;32.02;100650.22;39905982;29;20087;-76
2023/06/03 22:41:53;;;;;;;4.28;1.85;;;;;;;21.08;32.36;100639.59;39949070;29;20133;-75
2023/06/03 23:01:54;;;;;;;4.18;2.22;;;;;;;20.90;32.43;100626.00;39949731;29;20094;-75
2023/06/03 23:21:54;;;;;;;5.82;2.53;;;;;;;20.78;32.63;100627.72;39946943;29;20050;-76
2023/06/03 23:41:55;;;;;;;3.95;2.00;;;;;;;20.58;33.43;100623.84;39941264;29;20050;-76
